KFAF/FAF METAR and TAF weather

Enter ICAO airport designator
Station Type Date Time Source
KFAF METAR 2020/10/29 16:56 UTC NOAA

KFAF 291656Z AUTO 14013KT 10SM SCT022 22/21 A2950 RMK AO2 RAE1558RAB28E55 SLP993 P0010 T02170213 $


Station Type Date Time Source
KFAF Decoded METAR 2020/10/29 16:56 UTC NOAA

Fort Eustis / Felker, VA, United States (KFAF) 37-08N 076-37W
Oct 29, 2020 - 12:56 PM EDT / 2020.10.29 1656 UTC
Wind: from the SE (140 degrees) at 15 MPH (13 KT):0
Visibility: 10 mile(s):0
Sky conditions: partly cloudy
Precipitation last hour: 0.10 inches
Temperature: 71.1 F (21.7 C)
Dew Point: 70.3 F (21.3 C)
Relative Humidity: 97%
Pressure (altimeter): 29.5 in. Hg (998 hPa)
ob: KFAF 291656Z AUTO 14013KT 10SM SCT022 22/21 A2950 RMK AO2 RAE1558RAB28E55 SLP993 P0010 T02170213
cycle: 17

Station Type Date Time Source
KFAF TAF 2020/10/29 15:03 UTC NOAA

TAF TAF
AMD KFAF 291558Z 2915/3016 15009KT 9000 OVC030 QNH2962INS
BECMG 2917/2918 15020G30KT 9000 -RA OVC020 QNH2955INS
TEMPO 2918/2922 22025G35KT
BECMG 2922/2923 22015G25KT 9999 NSW BKN020 QNH2948INS
BECMG 3002/3003 30012G20KT 8000 -SHRA OVC015 QNH2949INS
BECMG 3011/3012 32020G25KT 9000 -RA OVC015 QNH2965INS
BECMG 3014/3015 34020G30KT 9999 NSW OVC015 QNH2973INS TX22/2920Z TN10/3010Z

Example: see airport list